Flight Briefing for CPX216

Departure Arrival
Chicago/Rockford International Airport (KRFD)
Click to view FAA NOTAMS
Sacramento International Airport (KSMF)
Click to view FAA NOTAMS
Departure Time Arrival Time
2330 UTC 0340 UTC
Aircraft Distance
B767-300BDSF 1511nm
Departure METAR Arrival METAR
KRFD 180554Z 35009KT 3SM -SN BR OVC055 M07/M09 A3003 RMK AO2 SLP178 P0000 60003 T10671089 11039 21067 410221067 53022 KSMF 180553Z 28005KT 10SM FEW070 04/02 A3009 RMK AO2 SLP188 60000 T00440022 10100 20039 53017
Suggested Route
DBQ J94 BFF J157 LAR TCH J154 BAM J94 LLC ANAHO SLMMR3


View recent IFR Routes data
Notes



Charts and Procedures

Charts for KRFD
No chart available
Charts for KSMF
No chart available

Ventusky Weather